Terminal Aerodrome Forecast
Issued by NWS

Home | Current Version | Previous Version | Text Only | Print | Product List | Glossary Off
Versions: 1 2 3 4 5 6 7 8 9 10 11 12 13 14 15 16 17 18 19 20

807
FTUS43 KABR 251123
TAFPIR
TAF
KPIR 251123Z 2512/2612 27006KT P6SM SKC
     FM252000 33012KT P6SM SCT100
     FM260200 VRB05KT P6SM SKC=

USA.gov is the U.S. government's official web portal to all federal, state and local government web resources and services.